sensor_id;sensor_type;location;lat;lon;timestamp;temperature;humidity
22635;DHT22;11484;50.858;4.384;2024-03-23T00:51:08;10.50;99.90
22635;DHT22;11484;50.858;4.384;2024-03-23T00:56:00;10.60;99.90
22635;DHT22;11484;50.858;4.384;2024-03-23T00:58:26;10.60;99.90
22635;DHT22;11484;50.858;4.384;2024-03-23T01:00:52;10.60;99.90
22635;DHT22;11484;50.858;4.384;2024-03-23T01:03:17;10.70;99.90
22635;DHT22;11484;50.858;4.384;2024-03-23T01:05:43;10.70;99.90
22635;DHT22;11484;50.858;4.384;2024-03-23T01:08:09;10.60;99.90
22635;DHT22;11484;50.858;4.384;2024-03-23T01:10:34;10.60;99.90
22635;DHT22;11484;50.858;4.384;2024-03-23T01:13:00;10.60;99.90
22635;DHT22;11484;50.858;4.384;2024-03-23T01:15:26;10.60;99.90
22635;DHT22;11484;50.858;4.384;2024-03-23T01:17:51;10.60;99.90
22635;DHT22;11484;50.858;4.384;2024-03-23T01:20:17;10.60;99.90
22635;DHT22;11484;50.858;4.384;2024-03-23T01:22:43;10.50;99.90
22635;DHT22;11484;50.858;4.384;2024-03-23T01:25:08;10.30;99.90
22635;DHT22;11484;50.858;4.384;2024-03-23T01:27:34;10.30;99.90
22635;DHT22;11484;50.858;4.384;2024-03-23T01:30:00;10.20;99.90
22635;DHT22;11484;50.858;4.384;2024-03-23T01:32:26;10.20;99.90
22635;DHT22;11484;50.858;4.384;2024-03-23T01:34:51;10.10;99.90
22635;DHT22;11484;50.858;4.384;2024-03-23T01:37:17;10.10;99.90
22635;DHT22;11484;50.858;4.384;2024-03-23T01:39:43;10.20;99.90
22635;DHT22;11484;50.858;4.384;2024-03-23T01:42:09;10.20;99.90
22635;DHT22;11484;50.858;4.384;2024-03-23T01:44:34;10.10;99.90
22635;DHT22;11484;50.858;4.384;2024-03-23T01:47:00;10.10;99.90
22635;DHT22;11484;50.858;4.384;2024-03-23T01:49:26;10.00;99.90
22635;DHT22;11484;50.858;4.384;2024-03-23T01:51:51;9.80;99.90
22635;DHT22;11484;50.858;4.384;2024-03-23T01:54:17;9.80;99.90
22635;DHT22;11484;50.858;4.384;2024-03-23T01:56:44;9.90;99.90
22635;DHT22;11484;50.858;4.384;2024-03-23T01:59:09;9.90;99.90
22635;DHT22;11484;50.858;4.384;2024-03-23T02:01:35;9.90;99.90
22635;DHT22;11484;50.858;4.384;2024-03-23T02:04:01;10.00;99.90
22635;DHT22;11484;50.858;4.384;2024-03-23T02:06:28;10.10;99.90
22635;DHT22;11484;50.858;4.384;2024-03-23T02:08:56;10.10;99.90
22635;DHT22;11484;50.858;4.384;2024-03-23T02:11:23;10.10;99.90
22635;DHT22;11484;50.858;4.384;2024-03-23T02:13:48;10.10;99.90
22635;DHT22;11484;50.858;4.384;2024-03-23T02:16:14;10.00;99.90
22635;DHT22;11484;50.858;4.384;2024-03-23T02:18:40;10.00;99.90
22635;DHT22;11484;50.858;4.384;2024-03-23T02:21:05;10.10;99.90
22635;DHT22;11484;50.858;4.384;2024-03-23T02:23:31;10.00;99.90
22635;DHT22;11484;50.858;4.384;2024-03-23T02:25:57;9.90;99.90
22635;DHT22;11484;50.858;4.384;2024-03-23T02:28:22;9.90;99.90
22635;DHT22;11484;50.858;4.384;2024-03-23T02:30:49;9.90;99.90
22635;DHT22;11484;50.858;4.384;2024-03-23T02:33:15;9.90;99.90
22635;DHT22;11484;50.858;4.384;2024-03-23T02:35:41;9.90;99.90
22635;DHT22;11484;50.858;4.384;2024-03-23T02:38:06;9.90;99.90
22635;DHT22;11484;50.858;4.384;2024-03-23T02:40:32;9.80;99.90
22635;DHT22;11484;50.858;4.384;2024-03-23T02:42:58;9.90;99.90
22635;DHT22;11484;50.858;4.384;2024-03-23T02:45:23;9.90;99.90
22635;DHT22;11484;50.858;4.384;2024-03-23T02:47:49;9.90;99.90
22635;DHT22;11484;50.858;4.384;2024-03-23T02:50:19;9.90;99.90
22635;DHT22;11484;50.858;4.384;2024-03-23T02:52:44;9.90;99.90
22635;DHT22;11484;50.858;4.384;2024-03-23T02:55:10;9.90;99.90
22635;DHT22;11484;50.858;4.384;2024-03-23T02:57:36;9.90;99.90
22635;DHT22;11484;50.858;4.384;2024-03-23T03:00:02;9.90;99.90
22635;DHT22;11484;50.858;4.384;2024-03-23T03:02:27;9.90;99.90
22635;DHT22;11484;50.858;4.384;2024-03-23T03:04:53;9.90;99.90
22635;DHT22;11484;50.858;4.384;2024-03-23T03:07:18;9.90;99.90
22635;DHT22;11484;50.858;4.384;2024-03-23T03:09:44;9.90;99.90
22635;DHT22;11484;50.858;4.384;2024-03-23T03:12:10;9.80;99.90
22635;DHT22;11484;50.858;4.384;2024-03-23T03:14:35;9.80;99.90
22635;DHT22;11484;50.858;4.384;2024-03-23T03:17:01;9.70;99.90
22635;DHT22;11484;50.858;4.384;2024-03-23T03:19:27;9.70;99.90
22635;DHT22;11484;50.858;4.384;2024-03-23T03:21:53;9.70;99.90
22635;DHT22;11484;50.858;4.384;2024-03-23T03:24:19;9.70;99.90
22635;DHT22;11484;50.858;4.384;2024-03-23T03:26:44;9.80;99.90
22635;DHT22;11484;50.858;4.384;2024-03-23T03:29:10;9.80;99.90
22635;DHT22;11484;50.858;4.384;2024-03-23T03:31:37;9.70;99.90
22635;DHT22;11484;50.858;4.384;2024-03-23T03:34:03;9.70;99.90
22635;DHT22;11484;50.858;4.384;2024-03-23T03:36:29;9.60;99.90
22635;DHT22;11484;50.858;4.384;2024-03-23T03:38:54;9.70;99.90
22635;DHT22;11484;50.858;4.384;2024-03-23T03:41:20;9.70;99.90
22635;DHT22;11484;50.858;4.384;2024-03-23T03:43:45;9.60;99.90
22635;DHT22;11484;50.858;4.384;2024-03-23T03:46:11;9.70;99.90
22635;DHT22;11484;50.858;4.384;2024-03-23T03:48:37;9.70;99.90
22635;DHT22;11484;50.858;4.384;2024-03-23T03:51:03;9.70;99.90
22635;DHT22;11484;50.858;4.384;2024-03-23T03:53:29;9.70;99.90
22635;DHT22;11484;50.858;4.384;2024-03-23T03:55:55;9.70;99.90
22635;DHT22;11484;50.858;4.384;2024-03-23T03:58:21;9.60;99.90
22635;DHT22;11484;50.858;4.384;2024-03-23T04:00:47;9.70;99.90
22635;DHT22;11484;50.858;4.384;2024-03-23T04:03:12;9.60;99.90
22635;DHT22;11484;50.858;4.384;2024-03-23T04:05:38;9.60;99.90
22635;DHT22;11484;50.858;4.384;2024-03-23T04:08:05;9.60;99.90
22635;DHT22;11484;50.858;4.384;2024-03-23T04:10:31;9.60;99.90
22635;DHT22;11484;50.858;4.384;2024-03-23T04:12:56;9.60;99.90
22635;DHT22;11484;50.858;4.384;2024-03-23T04:15:22;9.70;99.90
22635;DHT22;11484;50.858;4.384;2024-03-23T04:17:48;9.70;99.90
22635;DHT22;11484;50.858;4.384;2024-03-23T04:20:13;9.80;99.90
22635;DHT22;11484;50.858;4.384;2024-03-23T04:22:45;9.80;99.90
22635;DHT22;11484;50.858;4.384;2024-03-23T04:25:11;9.80;99.90
22635;DHT22;11484;50.858;4.384;2024-03-23T04:27:37;9.80;99.90
22635;DHT22;11484;50.858;4.384;2024-03-23T04:30:03;9.70;99.90
22635;DHT22;11484;50.858;4.384;2024-03-23T04:32:35;9.70;99.90
22635;DHT22;11484;50.858;4.384;2024-03-23T04:35:00;9.60;99.90
22635;DHT22;11484;50.858;4.384;2024-03-23T04:37:26;9.50;99.90
22635;DHT22;11484;50.858;4.384;2024-03-23T04:39:51;9.50;99.90
22635;DHT22;11484;50.858;4.384;2024-03-23T04:42:18;9.40;99.90
22635;DHT22;11484;50.858;4.384;2024-03-23T04:44:44;9.40;99.90
22635;DHT22;11484;50.858;4.384;2024-03-23T04:47:10;9.40;99.90
22635;DHT22;11484;50.858;4.384;2024-03-23T04:49:36;9.40;99.90
22635;DHT22;11484;50.858;4.384;2024-03-23T04:52:04;9.40;99.90
22635;DHT22;11484;50.858;4.384;2024-03-23T04:54:29;9.30;99.90
22635;DHT22;11484;50.858;4.384;2024-03-23T04:56:56;9.30;99.90
22635;DHT22;11484;50.858;4.384;2024-03-23T04:59:21;9.30;99.90
22635;DHT22;11484;50.858;4.384;2024-03-23T05:01:47;9.30;99.90
22635;DHT22;11484;50.858;4.384;2024-03-23T05:04:13;9.30;99.90
22635;DHT22;11484;50.858;4.384;2024-03-23T05:06:38;9.30;99.90
22635;DHT22;11484;50.858;4.384;2024-03-23T05:09:04;9.20;99.90
22635;DHT22;11484;50.858;4.384;2024-03-23T05:11:36;9.20;99.90
22635;DHT22;11484;50.858;4.384;2024-03-23T05:14:01;9.10;99.90
22635;DHT22;11484;50.858;4.384;2024-03-23T05:16:28;9.10;99.90
22635;DHT22;11484;50.858;4.384;2024-03-23T05:18:54;9.10;99.90
22635;DHT22;11484;50.858;4.384;2024-03-23T05:21:20;9.20;99.90
22635;DHT22;11484;50.858;4.384;2024-03-23T05:23:45;9.20;99.90
22635;DHT22;11484;50.858;4.384;2024-03-23T05:26:11;9.20;99.90
22635;DHT22;11484;50.858;4.384;2024-03-23T05:28:37;9.20;99.90
22635;DHT22;11484;50.858;4.384;2024-03-23T05:31:02;9.20;99.90
22635;DHT22;11484;50.858;4.384;2024-03-23T05:33:29;9.20;99.90
22635;DHT22;11484;50.858;4.384;2024-03-23T05:35:58;9.20;99.90
22635;DHT22;11484;50.858;4.384;2024-03-23T05:38:24;9.20;99.90
22635;DHT22;11484;50.858;4.384;2024-03-23T05:40:54;9.20;99.90
22635;DHT22;11484;50.858;4.384;2024-03-23T05:43:20;9.20;99.90
22635;DHT22;11484;50.858;4.384;2024-03-23T05:45:51;9.10;99.90
22635;DHT22;11484;50.858;4.384;2024-03-23T05:48:18;9.20;99.90
22635;DHT22;11484;50.858;4.384;2024-03-23T05:50:44;9.20;99.90
22635;DHT22;11484;50.858;4.384;2024-03-23T05:53:09;9.20;99.90
22635;DHT22;11484;50.858;4.384;2024-03-23T05:55:35;9.10;99.90
22635;DHT22;11484;50.858;4.384;2024-03-23T05:58:00;9.20;99.90
22635;DHT22;11484;50.858;4.384;2024-03-23T06:00:26;9.10;99.90
22635;DHT22;11484;50.858;4.384;2024-03-23T06:02:52;9.10;99.90
22635;DHT22;11484;50.858;4.384;2024-03-23T06:05:17;9.20;99.90
22635;DHT22;11484;50.858;4.384;2024-03-23T06:07:43;9.30;99.90
22635;DHT22;11484;50.858;4.384;2024-03-23T06:10:09;9.30;99.90
22635;DHT22;11484;50.858;4.384;2024-03-23T06:12:34;9.30;99.90
22635;DHT22;11484;50.858;4.384;2024-03-23T06:15:00;9.30;99.90
22635;DHT22;11484;50.858;4.384;2024-03-23T06:17:26;9.30;99.90
22635;DHT22;11484;50.858;4.384;2024-03-23T06:19:51;9.30;99.90
22635;DHT22;11484;50.858;4.384;2024-03-23T06:22:17;9.30;99.90
22635;DHT22;11484;50.858;4.384;2024-03-23T06:24:44;9.40;99.90
22635;DHT22;11484;50.858;4.384;2024-03-23T06:27:09;9.50;99.90
22635;DHT22;11484;50.858;4.384;2024-03-23T06:29:35;9.50;99.90
22635;DHT22;11484;50.858;4.384;2024-03-23T06:32:02;9.60;99.90
22635;DHT22;11484;50.858;4.384;2024-03-23T06:34:29;9.60;99.90
22635;DHT22;11484;50.858;4.384;2024-03-23T06:36:54;9.50;99.90
22635;DHT22;11484;50.858;4.384;2024-03-23T06:39:20;9.50;99.90
22635;DHT22;11484;50.858;4.384;2024-03-23T06:41:52;9.30;99.90
22635;DHT22;11484;50.858;4.384;2024-03-23T06:44:18;9.30;99.90
22635;DHT22;11484;50.858;4.384;2024-03-23T06:46:44;9.20;99.90
22635;DHT22;11484;50.858;4.384;2024-03-23T06:49:10;9.20;99.90
22635;DHT22;11484;50.858;4.384;2024-03-23T06:51:36;9.30;99.90
22635;DHT22;11484;50.858;4.384;2024-03-23T06:54:06;9.30;99.90
22635;DHT22;11484;50.858;4.384;2024-03-23T06:56:32;9.40;99.90
22635;DHT22;11484;50.858;4.384;2024-03-23T06:58:58;9.50;99.90
22635;DHT22;11484;50.858;4.384;2024-03-23T07:01:24;9.50;99.90
22635;DHT22;11484;50.858;4.384;2024-03-23T07:03:50;9.60;99.90
22635;DHT22;11484;50.858;4.384;2024-03-23T07:06:15;9.60;99.90
22635;DHT22;11484;50.858;4.384;2024-03-23T07:08:41;9.60;99.90
22635;DHT22;11484;50.858;4.384;2024-03-23T07:11:07;9.50;99.90
22635;DHT22;11484;50.858;4.384;2024-03-23T07:13:32;9.50;99.90
22635;DHT22;11484;50.858;4.384;2024-03-23T07:15:58;9.40;99.90
22635;DHT22;11484;50.858;4.384;2024-03-23T07:18:25;9.40;99.90
22635;DHT22;11484;50.858;4.384;2024-03-23T07:20:57;9.20;99.90
22635;DHT22;11484;50.858;4.384;2024-03-23T07:23:24;9.10;99.90
22635;DHT22;11484;50.858;4.384;2024-03-23T07:25:59;9.00;99.90
22635;DHT22;11484;50.858;4.384;2024-03-23T07:28:25;9.00;99.90
22635;DHT22;11484;50.858;4.384;2024-03-23T07:31:08;9.00;99.90
22635;DHT22;11484;50.858;4.384;2024-03-23T07:33:48;9.00;99.90
22635;DHT22;11484;50.858;4.384;2024-03-23T07:36:15;9.30;99.90
22635;DHT22;11484;50.858;4.384;2024-03-23T07:38:44;9.90;99.90
22635;DHT22;11484;50.858;4.384;2024-03-23T07:41:15;11.00;99.90
22635;DHT22;11484;50.858;4.384;2024-03-23T07:43:48;12.10;99.90
22635;DHT22;11484;50.858;4.384;2024-03-23T07:46:16;12.70;99.90
22635;DHT22;11484;50.858;4.384;2024-03-23T07:48:42;13.30;99.90
22635;DHT22;11484;50.858;4.384;2024-03-23T07:51:10;14.20;99.90
22635;DHT22;11484;50.858;4.384;2024-03-23T07:53:37;14.70;99.90
22635;DHT22;11484;50.858;4.384;2024-03-23T07:58:29;15.20;99.90
22635;DHT22;11484;50.858;4.384;2024-03-23T08:00:56;14.90;99.90
22635;DHT22;11484;50.858;4.384;2024-03-23T08:03:22;14.90;99.90
22635;DHT22;11484;50.858;4.384;2024-03-23T08:05:48;14.90;99.90
22635;DHT22;11484;50.858;4.384;2024-03-23T08:08:15;15.10;99.90
22635;DHT22;11484;50.858;4.384;2024-03-23T08:10:50;15.30;99.90
22635;DHT22;11484;50.858;4.384;2024-03-23T08:13:17;15.00;99.90
22635;DHT22;11484;50.858;4.384;2024-03-23T08:15:43;14.50;99.90
22635;DHT22;11484;50.858;4.384;2024-03-23T08:18:10;13.70;99.90
22635;DHT22;11484;50.858;4.384;2024-03-23T08:20:36;13.10;99.90
22635;DHT22;11484;50.858;4.384;2024-03-23T08:23:01;12.70;99.90
22635;DHT22;11484;50.858;4.384;2024-03-23T08:25:30;12.60;99.90
22635;DHT22;11484;50.858;4.384;2024-03-23T08:27:56;12.40;99.90
22635;DHT22;11484;50.858;4.384;2024-03-23T08:30:22;12.20;99.90
22635;DHT22;11484;50.858;4.384;2024-03-23T08:32:48;12.10;99.90
22635;DHT22;11484;50.858;4.384;2024-03-23T08:35:14;12.10;99.90
22635;DHT22;11484;50.858;4.384;2024-03-23T08:37:39;11.90;99.90
22635;DHT22;11484;50.858;4.384;2024-03-23T08:40:06;11.70;99.90
22635;DHT22;11484;50.858;4.384;2024-03-23T08:42:32;11.40;99.90
22635;DHT22;11484;50.858;4.384;2024-03-23T08:44:57;11.30;99.90
22635;DHT22;11484;50.858;4.384;2024-03-23T08:47:23;11.20;99.90
22635;DHT22;11484;50.858;4.384;2024-03-23T08:49:48;11.10;99.90
22635;DHT22;11484;50.858;4.384;2024-03-23T08:52:18;11.00;99.90
22635;DHT22;11484;50.858;4.384;2024-03-23T08:54:44;11.00;99.90
22635;DHT22;11484;50.858;4.384;2024-03-23T08:57:10;11.30;99.90
22635;DHT22;11484;50.858;4.384;2024-03-23T08:59:37;11.40;99.90
22635;DHT22;11484;50.858;4.384;2024-03-23T09:02:03;11.40;99.90
22635;DHT22;11484;50.858;4.384;2024-03-23T09:04:29;12.10;99.90
22635;DHT22;11484;50.858;4.384;2024-03-23T09:06:55;13.10;99.90
22635;DHT22;11484;50.858;4.384;2024-03-23T09:09:22;13.10;99.90
22635;DHT22;11484;50.858;4.384;2024-03-23T09:11:48;12.80;99.90
22635;DHT22;11484;50.858;4.384;2024-03-23T09:14:14;12.70;99.90
22635;DHT22;11484;50.858;4.384;2024-03-23T09:16:39;12.80;99.90
22635;DHT22;11484;50.858;4.384;2024-03-23T09:19:05;13.20;99.90
22635;DHT22;11484;50.858;4.384;2024-03-23T09:21:31;13.40;99.90
22635;DHT22;11484;50.858;4.384;2024-03-23T09:23:57;13.20;99.90
22635;DHT22;11484;50.858;4.384;2024-03-23T09:26:22;13.00;99.90
22635;DHT22;11484;50.858;4.384;2024-03-23T09:28:49;13.00;99.90
22635;DHT22;11484;50.858;4.384;2024-03-23T09:31:14;13.40;99.90
22635;DHT22;11484;50.858;4.384;2024-03-23T09:33:41;13.90;99.90
22635;DHT22;11484;50.858;4.384;2024-03-23T09:36:08;13.90;99.90
22635;DHT22;11484;50.858;4.384;2024-03-23T09:38:34;14.30;99.90
22635;DHT22;11484;50.858;4.384;2024-03-23T09:41:00;14.90;99.90
22635;DHT22;11484;50.858;4.384;2024-03-23T09:43:26;15.20;99.90
22635;DHT22;11484;50.858;4.384;2024-03-23T09:45:52;15.20;99.90
22635;DHT22;11484;50.858;4.384;2024-03-23T09:48:19;15.10;99.90
22635;DHT22;11484;50.858;4.384;2024-03-23T09:50:46;14.80;99.90
22635;DHT22;11484;50.858;4.384;2024-03-23T09:53:13;14.30;99.90
22635;DHT22;11484;50.858;4.384;2024-03-23T09:55:41;14.40;99.90
22635;DHT22;11484;50.858;4.384;2024-03-23T09:58:07;14.20;99.90
22635;DHT22;11484;50.858;4.384;2024-03-23T10:00:36;14.00;99.90
22635;DHT22;11484;50.858;4.384;2024-03-23T10:03:02;14.10;99.90
22635;DHT22;11484;50.858;4.384;2024-03-23T10:05:29;13.90;99.90
22635;DHT22;11484;50.858;4.384;2024-03-23T10:07:59;13.50;99.90
22635;DHT22;11484;50.858;4.384;2024-03-23T10:10:25;13.20;99.90
22635;DHT22;11484;50.858;4.384;2024-03-23T10:12:51;13.40;99.90
22635;DHT22;11484;50.858;4.384;2024-03-23T10:15:25;13.60;99.90
22635;DHT22;11484;50.858;4.384;2024-03-23T10:17:51;14.20;99.90
22635;DHT22;11484;50.858;4.384;2024-03-23T10:20:22;14.40;99.50
22635;DHT22;11484;50.858;4.384;2024-03-23T10:22:49;14.60;98.90
22635;DHT22;11484;50.858;4.384;2024-03-23T10:25:15;15.00;98.80
22635;DHT22;11484;50.858;4.384;2024-03-23T10:27:45;15.30;97.70
22635;DHT22;11484;50.858;4.384;2024-03-23T10:30:25;15.00;96.90
22635;DHT22;11484;50.858;4.384;2024-03-23T10:33:07;14.80;97.60
22635;DHT22;11484;50.858;4.384;2024-03-23T10:35:34;14.40;98.30
22635;DHT22;11484;50.858;4.384;2024-03-23T10:38:02;13.90;99.90
22635;DHT22;11484;50.858;4.384;2024-03-23T10:40:29;13.50;99.90
22635;DHT22;11484;50.858;4.384;2024-03-23T10:42:58;13.20;99.90
22635;DHT22;11484;50.858;4.384;2024-03-23T10:45:25;13.00;99.90
22635;DHT22;11484;50.858;4.384;2024-03-23T10:47:51;12.80;99.90
22635;DHT22;11484;50.858;4.384;2024-03-23T10:50:17;12.50;99.90
22635;DHT22;11484;50.858;4.384;2024-03-23T10:52:46;12.40;99.90
22635;DHT22;11484;50.858;4.384;2024-03-23T10:55:15;12.60;99.90
22635;DHT22;11484;50.858;4.384;2024-03-23T10:57:50;12.90;99.90
22635;DHT22;11484;50.858;4.384;2024-03-23T11:00:17;13.00;99.90
22635;DHT22;11484;50.858;4.384;2024-03-23T11:02:43;13.00;99.90
22635;DHT22;11484;50.858;4.384;2024-03-23T11:07:51;12.80;99.90
22635;DHT22;11484;50.858;4.384;2024-03-23T11:10:30;12.80;99.90
22635;DHT22;11484;50.858;4.384;2024-03-23T11:12:57;12.90;99.90
22635;DHT22;11484;50.858;4.384;2024-03-23T11:15:24;12.90;99.90
22635;DHT22;11484;50.858;4.384;2024-03-23T11:18:03;12.90;99.90
22635;DHT22;11484;50.858;4.384;2024-03-23T11:20:32;13.00;99.90
22635;DHT22;11484;50.858;4.384;2024-03-23T11:22:59;12.90;99.90
22635;DHT22;11484;50.858;4.384;2024-03-23T11:25:26;12.90;99.90
22635;DHT22;11484;50.858;4.384;2024-03-23T11:28:11;12.80;99.20
22635;DHT22;11484;50.858;4.384;2024-03-23T11:30:37;12.90;99.90
22635;DHT22;11484;50.858;4.384;2024-03-23T11:33:06;13.00;99.90
22635;DHT22;11484;50.858;4.384;2024-03-23T11:35:39;13.00;99.10
22635;DHT22;11484;50.858;4.384;2024-03-23T11:38:13;13.00;98.50
22635;DHT22;11484;50.858;4.384;2024-03-23T11:40:46;13.10;99.00
22635;DHT22;11484;50.858;4.384;2024-03-23T11:43:14;13.20;99.60
22635;DHT22;11484;50.858;4.384;2024-03-23T11:45:51;13.20;99.00
22635;DHT22;11484;50.858;4.384;2024-03-23T11:48:22;13.00;98.60
22635;DHT22;11484;50.858;4.384;2024-03-23T11:50:53;12.70;99.00
22635;DHT22;11484;50.858;4.384;2024-03-23T11:53:23;12.50;99.80
22635;DHT22;11484;50.858;4.384;2024-03-23T11:55:50;12.40;99.90
22635;DHT22;11484;50.858;4.384;2024-03-23T11:58:20;12.30;99.90
22635;DHT22;11484;50.858;4.384;2024-03-23T12:03:17;12.30;99.90
22635;DHT22;11484;50.858;4.384;2024-03-23T12:05:48;12.30;99.90
22635;DHT22;11484;50.858;4.384;2024-03-23T12:08:28;12.40;99.90
22635;DHT22;11484;50.858;4.384;2024-03-23T12:11:12;12.20;99.90
22635;DHT22;11484;50.858;4.384;2024-03-23T12:13:39;12.10;99.50
22635;DHT22;11484;50.858;4.384;2024-03-23T12:16:10;12.00;99.80
22635;DHT22;11484;50.858;4.384;2024-03-23T12:18:37;12.00;99.90
22635;DHT22;11484;50.858;4.384;2024-03-23T12:21:04;12.00;99.20
22635;DHT22;11484;50.858;4.384;2024-03-23T12:23:29;12.00;99.50
22635;DHT22;11484;50.858;4.384;2024-03-23T12:25:55;11.90;99.80
22635;DHT22;11484;50.858;4.384;2024-03-23T12:28:21;11.70;99.90
22635;DHT22;11484;50.858;4.384;2024-03-23T12:30:46;11.50;99.90
22635;DHT22;11484;50.858;4.384;2024-03-23T12:33:12;11.50;99.90
22635;DHT22;11484;50.858;4.384;2024-03-23T12:35:37;11.40;99.90
22635;DHT22;11484;50.858;4.384;2024-03-23T12:38:03;11.50;99.90
22635;DHT22;11484;50.858;4.384;2024-03-23T12:40:29;11.50;99.90
22635;DHT22;11484;50.858;4.384;2024-03-23T12:42:55;11.60;99.90
22635;DHT22;11484;50.858;4.384;2024-03-23T12:45:23;11.60;99.90
22635;DHT22;11484;50.858;4.384;2024-03-23T12:47:49;11.60;99.90
22635;DHT22;11484;50.858;4.384;2024-03-23T12:50:15;11.70;99.90
22635;DHT22;11484;50.858;4.384;2024-03-23T12:52:41;11.70;99.90
22635;DHT22;11484;50.858;4.384;2024-03-23T12:55:07;11.80;99.90
22635;DHT22;11484;50.858;4.384;2024-03-23T12:57:33;11.90;99.90
22635;DHT22;11484;50.858;4.384;2024-03-23T12:59:59;12.00;99.90
22635;DHT22;11484;50.858;4.384;2024-03-23T13:02:25;12.20;99.90
22635;DHT22;11484;50.858;4.384;2024-03-23T13:04:53;12.50;99.70
22635;DHT22;11484;50.858;4.384;2024-03-23T13:07:20;12.70;97.80
22635;DHT22;11484;50.858;4.384;2024-03-23T13:09:46;12.70;96.30
22635;DHT22;11484;50.858;4.384;2024-03-23T13:12:12;12.70;96.70
22635;DHT22;11484;50.858;4.384;2024-03-23T13:14:41;12.80;95.10
22635;DHT22;11484;50.858;4.384;2024-03-23T13:17:07;12.70;94.80
22635;DHT22;11484;50.858;4.384;2024-03-23T13:19:34;12.70;94.60
22635;DHT22;11484;50.858;4.384;2024-03-23T13:22:02;12.70;94.60
22635;DHT22;11484;50.858;4.384;2024-03-23T13:24:29;12.60;95.20
22635;DHT22;11484;50.858;4.384;2024-03-23T13:26:56;12.40;95.60
22635;DHT22;11484;50.858;4.384;2024-03-23T13:29:22;12.30;95.90
22635;DHT22;11484;50.858;4.384;2024-03-23T13:31:49;12.30;95.90
22635;DHT22;11484;50.858;4.384;2024-03-23T13:34:16;12.40;96.20
22635;DHT22;11484;50.858;4.384;2024-03-23T13:36:42;12.60;96.20
22635;DHT22;11484;50.858;4.384;2024-03-23T13:39:09;12.70;95.90
22635;DHT22;11484;50.858;4.384;2024-03-23T13:41:46;12.70;96.40
22635;DHT22;11484;50.858;4.384;2024-03-23T13:44:13;12.80;96.40
22635;DHT22;11484;50.858;4.384;2024-03-23T13:46:42;12.60;98.40
22635;DHT22;11484;50.858;4.384;2024-03-23T13:49:26;12.40;99.90
22635;DHT22;11484;50.858;4.384;2024-03-23T13:51:53;12.20;99.90
22635;DHT22;11484;50.858;4.384;2024-03-23T13:54:19;12.00;99.90
22635;DHT22;11484;50.858;4.384;2024-03-23T13:56:45;12.10;99.90
22635;DHT22;11484;50.858;4.384;2024-03-23T13:59:10;12.20;99.90
22635;DHT22;11484;50.858;4.384;2024-03-23T14:01:37;12.30;99.90
22635;DHT22;11484;50.858;4.384;2024-03-23T14:04:03;12.50;99.90
22635;DHT22;11484;50.858;4.384;2024-03-23T14:06:29;12.60;99.90
22635;DHT22;11484;50.858;4.384;2024-03-23T14:08:55;12.60;99.90
22635;DHT22;11484;50.858;4.384;2024-03-23T14:11:24;12.60;99.90
22635;DHT22;11484;50.858;4.384;2024-03-23T14:13:52;12.60;99.90
22635;DHT22;11484;50.858;4.384;2024-03-23T14:16:18;12.60;99.90
22635;DHT22;11484;50.858;4.384;2024-03-23T14:18:46;12.50;99.90
22635;DHT22;11484;50.858;4.384;2024-03-23T14:21:14;12.50;99.90
22635;DHT22;11484;50.858;4.384;2024-03-23T14:23:39;12.50;99.90
22635;DHT22;11484;50.858;4.384;2024-03-23T14:26:08;12.60;99.90
22635;DHT22;11484;50.858;4.384;2024-03-23T14:28:34;12.60;99.90
22635;DHT22;11484;50.858;4.384;2024-03-23T14:31:00;12.50;99.90
22635;DHT22;11484;50.858;4.384;2024-03-23T14:33:26;12.40;99.90
22635;DHT22;11484;50.858;4.384;2024-03-23T14:35:53;12.20;99.90
22635;DHT22;11484;50.858;4.384;2024-03-23T14:38:21;12.10;99.90
22635;DHT22;11484;50.858;4.384;2024-03-23T14:40:48;12.00;99.90
22635;DHT22;11484;50.858;4.384;2024-03-23T14:43:14;12.00;99.90
22635;DHT22;11484;50.858;4.384;2024-03-23T14:46:08;11.90;99.90
22635;DHT22;11484;50.858;4.384;2024-03-23T14:48:34;11.90;99.90
22635;DHT22;11484;50.858;4.384;2024-03-23T14:51:01;11.90;99.90
22635;DHT22;11484;50.858;4.384;2024-03-23T14:53:27;11.90;99.90
22635;DHT22;11484;50.858;4.384;2024-03-23T14:55:56;12.00;99.90
22635;DHT22;11484;50.858;4.384;2024-03-23T14:58:22;12.00;99.90
22635;DHT22;11484;50.858;4.384;2024-03-23T15:00:49;12.10;99.90
22635;DHT22;11484;50.858;4.384;2024-03-23T15:03:15;12.10;99.90
22635;DHT22;11484;50.858;4.384;2024-03-23T15:05:41;12.20;99.90
22635;DHT22;11484;50.858;4.384;2024-03-23T15:08:07;12.30;99.90
22635;DHT22;11484;50.858;4.384;2024-03-23T15:10:33;12.40;99.90
22635;DHT22;11484;50.858;4.384;2024-03-23T15:12:59;12.40;99.90
22635;DHT22;11484;50.858;4.384;2024-03-23T15:15:24;12.50;99.90
22635;DHT22;11484;50.858;4.384;2024-03-23T15:17:50;12.40;99.60
22635;DHT22;11484;50.858;4.384;2024-03-23T15:20:16;12.40;99.70
22635;DHT22;11484;50.858;4.384;2024-03-23T15:22:42;12.40;99.90
22635;DHT22;11484;50.858;4.384;2024-03-23T15:25:08;12.50;99.90
22635;DHT22;11484;50.858;4.384;2024-03-23T15:27:34;12.50;99.90
22635;DHT22;11484;50.858;4.384;2024-03-23T15:29:59;12.50;99.90
22635;DHT22;11484;50.858;4.384;2024-03-23T15:32:25;12.50;99.90
22635;DHT22;11484;50.858;4.384;2024-03-23T15:34:51;12.60;99.90
22635;DHT22;11484;50.858;4.384;2024-03-23T15:37:17;12.70;99.90
22635;DHT22;11484;50.858;4.384;2024-03-23T15:39:44;12.80;99.60
22635;DHT22;11484;50.858;4.384;2024-03-23T15:42:11;12.80;99.20
22635;DHT22;11484;50.858;4.384;2024-03-23T15:44:37;12.80;99.30
22635;DHT22;11484;50.858;4.384;2024-03-23T15:47:03;12.60;99.50
22635;DHT22;11484;50.858;4.384;2024-03-23T15:49:29;12.70;99.20
22635;DHT22;11484;50.858;4.384;2024-03-23T15:51:54;12.70;99.50
22635;DHT22;11484;50.858;4.384;2024-03-23T15:54:20;12.70;99.30
22635;DHT22;11484;50.858;4.384;2024-03-23T15:56:47;12.80;99.90
22635;DHT22;11484;50.858;4.384;2024-03-23T15:59:13;12.90;99.50
22635;DHT22;11484;50.858;4.384;2024-03-23T16:01:39;13.00;99.60
22635;DHT22;11484;50.858;4.384;2024-03-23T16:04:04;13.10;99.20
22635;DHT22;11484;50.858;4.384;2024-03-23T16:06:30;13.10;98.80
22635;DHT22;11484;50.858;4.384;2024-03-23T16:08:56;13.10;98.10
22635;DHT22;11484;50.858;4.384;2024-03-23T16:11:22;12.90;97.40
22635;DHT22;11484;50.858;4.384;2024-03-23T16:13:48;12.80;97.00
22635;DHT22;11484;50.858;4.384;2024-03-23T16:16:13;12.70;97.30
22635;DHT22;11484;50.858;4.384;2024-03-23T16:18:41;12.70;96.40
22635;DHT22;11484;50.858;4.384;2024-03-23T16:21:08;12.50;96.50
22635;DHT22;11484;50.858;4.384;2024-03-23T16:23:34;12.30;96.00
22635;DHT22;11484;50.858;4.384;2024-03-23T16:26:03;12.20;95.70
22635;DHT22;11484;50.858;4.384;2024-03-23T16:28:33;12.10;96.30
22635;DHT22;11484;50.858;4.384;2024-03-23T16:31:18;12.10;96.50
22635;DHT22;11484;50.858;4.384;2024-03-23T16:33:43;12.10;96.30